Wetterdaten: Woche 02.10.17 - 08.10.17 (KW40)
Datum Zeit Temperatur Luftfeuchte Luftdruck Niederschlag Windrichtung Sonnenschein Solar Wind
02.10.2017 00:00 7,7 C 98 % 1020,1 hPa 0,0 l/m N 0,00 h 0 W/m 0,0 km/h (0 Bft)
02.10.2017 01:00 7,8 C 98 % 1019,8 hPa 0,0 l/m N 0,00 h 0 W/m 0,0 km/h (0 Bft)
02.10.2017 02:00 7,4 C 98 % 1019,7 hPa 0,0 l/m N 0,00 h 0 W/m 0,0 km/h (0 Bft)
02.10.2017 03:00 7,2 C 98 % 1019,6 hPa 0,0 l/m N 0,00 h 0 W/m 0,0 km/h (0 Bft)
02.10.2017 04:00 7,2 C 98 % 1019,2 hPa 0,0 l/m N 0,00 h 0 W/m 0,0 km/h (0 Bft)
02.10.2017 05:00 7,9 C 99 % 1019,2 hPa 0,0 l/m N 0,00 h 0 W/m 0,0 km/h (0 Bft)
02.10.2017 06:00 8,9 C 99 % 1019,1 hPa 0,2 l/m O 0,00 h 0 W/m 1,7 km/h (1 Bft)
02.10.2017 07:00 9,4 C 99 % 1019,3 hPa 0,0 l/m S-SO 0,08 h 17 W/m 6,4 km/h (2 Bft)
02.10.2017 08:00 9,8 C 100 % 1019,3 hPa 0,0 l/m S-SW 0,08 h 87 W/m 8,0 km/h (2 Bft)
02.10.2017 09:00 11,0 C 100 % 1019,3 hPa 0,0 l/m S-SW 0,58 h 212 W/m 10,7 km/h (2 Bft)
02.10.2017 10:00 12,5 C 97 % 1019,4 hPa 0,0 l/m SW 0,00 h 183 W/m 12,1 km/h (2 Bft)
02.10.2017 11:00 13,4 C 91 % 1019,2 hPa 0,0 l/m SW 0,00 h 216 W/m 15,0 km/h (3 Bft)
02.10.2017 12:00 14,1 C 86 % 1018,9 hPa 0,0 l/m SW 0,00 h 236 W/m 21,3 km/h (4 Bft)
02.10.2017 13:00 14,4 C 85 % 1018,2 hPa 0,0 l/m W-SW 0,00 h 191 W/m 22,6 km/h (4 Bft)
02.10.2017 14:00 15,2 C 85 % 1017,7 hPa 0,0 l/m SW 0,33 h 312 W/m 21,7 km/h (4 Bft)
02.10.2017 15:00 15,6 C 86 % 1017,5 hPa 0,0 l/m W-SW 0,00 h 195 W/m 21,8 km/h (4 Bft)
02.10.2017 16:00 15,4 C 85 % 1016,9 hPa 0,0 l/m W-SW 0,00 h 137 W/m 23,5 km/h (4 Bft)
02.10.2017 17:00 15,0 C 84 % 1017,0 hPa 0,0 l/m SW 0,00 h 60 W/m 21,7 km/h (4 Bft)
02.10.2017 18:00 14,8 C 85 % 1017,0 hPa 0,0 l/m W-SW 0,00 h 16 W/m 20,4 km/h (4 Bft)
02.10.2017 19:00 14,3 C 89 % 1017,0 hPa 0,0 l/m SW 0,00 h 0 W/m 15,6 km/h (3 Bft)
02.10.2017 20:00 14,0 C 91 % 1017,0 hPa 0,2 l/m SW 0,00 h 0 W/m 16,2 km/h (3 Bft)
02.10.2017 21:00 13,7 C 94 % 1017,0 hPa 0,0 l/m SW 0,00 h 0 W/m 11,7 km/h (2 Bft)
02.10.2017 22:00 13,7 C 95 % 1016,6 hPa 0,2 l/m SW 0,00 h 0 W/m 16,1 km/h (3 Bft)
02.10.2017 23:00 14,2 C 95 % 1016,3 hPa 0,0 l/m W-SW 0,00 h 0 W/m 18,0 km/h (3 Bft)
03.10.2017 00:00 14,3 C 96 % 1015,9 hPa 0,0 l/m W-SW 0,00 h 0 W/m 16,0 km/h (3 Bft)
03.10.2017 01:00 14,2 C 95 % 1015,6 hPa 0,0 l/m SW 0,00 h 0 W/m 15,7 km/h (3 Bft)
03.10.2017 02:00 14,1 C 96 % 1015,2 hPa 0,0 l/m SW 0,00 h 0 W/m 17,0 km/h (3 Bft)
03.10.2017 03:00 14,2 C 97 % 1014,1 hPa 0,0 l/m W-SW 0,00 h 0 W/m 17,3 km/h (3 Bft)
03.10.2017 04:00 14,4 C 97 % 1012,6 hPa 0,0 l/m SW 0,00 h 0 W/m 16,2 km/h (3 Bft)
03.10.2017 05:00 14,5 C 97 % 1011,4 hPa 0,0 l/m SW 0,00 h 0 W/m 18,9 km/h (3 Bft)
03.10.2017 06:00 15,1 C 95 % 1010,6 hPa 0,0 l/m W-SW 0,00 h 0 W/m 27,5 km/h (4 Bft)
03.10.2017 07:00 15,3 C 93 % 1010,7 hPa 3,0 l/m W-SW 0,00 h 5 W/m 25,7 km/h (4 Bft)
03.10.2017 08:00 12,2 C 95 % 1012,5 hPa 2,4 l/m N 0,00 h 11 W/m 12,3 km/h (3 Bft)
03.10.2017 09:00 11,2 C 97 % 1013,9 hPa 5,2 l/m N-NO 0,00 h 20 W/m 10,9 km/h (2 Bft)
03.10.2017 10:00 11,0 C 97 % 1015,3 hPa 1,6 l/m N 0,00 h 56 W/m 0,0 km/h (0 Bft)
03.10.2017 11:00 11,3 C 96 % 1017,5 hPa 0,0 l/m N-NO 0,08 h 197 W/m 7,9 km/h (2 Bft)
03.10.2017 12:00 12,8 C 90 % 1018,5 hPa 0,0 l/m N-NW 0,67 h 509 W/m 8,4 km/h (2 Bft)
03.10.2017 13:00 14,4 C 82 % 1018,5 hPa 0,0 l/m W-NW 0,58 h 470 W/m 8,6 km/h (2 Bft)
03.10.2017 14:00 13,9 C 79 % 1019,0 hPa 0,0 l/m N-NW 0,25 h 283 W/m 14,9 km/h (3 Bft)
03.10.2017 15:00 14,5 C 74 % 1019,2 hPa 0,0 l/m W-NW 0,83 h 474 W/m 16,4 km/h (3 Bft)
03.10.2017 16:00 14,9 C 67 % 1019,6 hPa 0,0 l/m W-NW 1,00 h 354 W/m 14,9 km/h (3 Bft)
03.10.2017 17:00 14,4 C 65 % 1020,0 hPa 0,0 l/m W-NW 0,83 h 155 W/m 11,3 km/h (2 Bft)
03.10.2017 18:00 12,4 C 75 % 1020,7 hPa 0,0 l/m N 0,17 h 22 W/m 1,7 km/h (1 Bft)
03.10.2017 19:00 10,2 C 85 % 1021,5 hPa 0,0 l/m N 0,00 h 0 W/m 0,0 km/h (0 Bft)
03.10.2017 20:00 8,5 C 92 % 1022,7 hPa 0,0 l/m N 0,00 h 0 W/m 0,0 km/h (0 Bft)
03.10.2017 21:00 8,3 C 94 % 1023,3 hPa 0,0 l/m N 0,00 h 0 W/m 0,0 km/h (0 Bft)
03.10.2017 22:00 7,9 C 95 % 1023,8 hPa 0,0 l/m N 0,00 h 0 W/m 0,0 km/h (0 Bft)
03.10.2017 23:00 6,9 C 96 % 1024,2 hPa 0,0 l/m N 0,00 h 0 W/m 0,0 km/h (0 Bft)
04.10.2017 00:00 7,5 C 97 % 1024,6 hPa 0,0 l/m N 0,00 h 0 W/m 0,0 km/h (0 Bft)
04.10.2017 01:00 7,9 C 97 % 1024,3 hPa 0,0 l/m N 0,00 h 0 W/m 0,0 km/h (0 Bft)
04.10.2017 02:00 7,7 C 97 % 1024,2 hPa 0,0 l/m N 0,00 h 0 W/m 0,0 km/h (0 Bft)
04.10.2017 03:00 6,8 C 97 % 1024,1 hPa 0,0 l/m N 0,00 h 0 W/m 0,0 km/h (0 Bft)
04.10.2017 04:00 6,0 C 97 % 1023,9 hPa 0,0 l/m N 0,00 h 0 W/m 0,0 km/h (0 Bft)
04.10.2017 05:00 5,6 C 98 % 1023,7 hPa 0,0 l/m N 0,00 h 0 W/m 0,0 km/h (0 Bft)
04.10.2017 06:00 5,4 C 98 % 1023,8 hPa 0,0 l/m N 0,00 h 0 W/m 0,0 km/h (0 Bft)
04.10.2017 07:00 5,1 C 98 % 1024,0 hPa 0,0 l/m N 0,17 h 17 W/m 0,0 km/h (0 Bft)
04.10.2017 08:00 5,8 C 98 % 1024,2 hPa 0,0 l/m N 0,58 h 113 W/m 0,0 km/h (0 Bft)
04.10.2017 09:00 7,6 C 97 % 1024,6 hPa 0,0 l/m N 0,00 h 127 W/m 0,0 km/h (0 Bft)
04.10.2017 10:00 8,9 C 96 % 1024,9 hPa 0,0 l/m N 0,17 h 236 W/m 0,0 km/h (0 Bft)
04.10.2017 11:00 11,4 C 88 % 1024,4 hPa 0,0 l/m SW 0,92 h 382 W/m 5,9 km/h (2 Bft)
04.10.2017 12:00 12,7 C 81 % 1024,0 hPa 0,0 l/m SW 0,58 h 428 W/m 11,8 km/h (2 Bft)
04.10.2017 13:00 13,5 C 82 % 1023,2 hPa 0,0 l/m SW 0,33 h 308 W/m 13,7 km/h (3 Bft)
04.10.2017 14:00 13,8 C 79 % 1022,8 hPa 0,0 l/m W-SW 0,25 h 308 W/m 19,0 km/h (3 Bft)
04.10.2017 15:00 14,8 C 76 % 1022,2 hPa 0,0 l/m W-SW 1,00 h 389 W/m 16,4 km/h (3 Bft)
04.10.2017 16:00 14,8 C 71 % 1021,9 hPa 0,0 l/m SW 1,00 h 275 W/m 14,6 km/h (3 Bft)
04.10.2017 17:00 14,1 C 73 % 1021,7 hPa 0,0 l/m W-SW 0,50 h 128 W/m 12,6 km/h (3 Bft)
04.10.2017 18:00 12,4 C 81 % 1021,5 hPa 0,0 l/m SW 0,00 h 23 W/m 8,6 km/h (2 Bft)
04.10.2017 19:00 10,9 C 87 % 1021,8 hPa 0,0 l/m SW 0,00 h 0 W/m 4,3 km/h (1 Bft)
04.10.2017 20:00 10,0 C 91 % 1021,8 hPa 0,0 l/m N 0,00 h 0 W/m 0,4 km/h (0 Bft)
04.10.2017 21:00 9,8 C 91 % 1022,0 hPa 0,0 l/m SW 0,00 h 0 W/m 4,8 km/h (1 Bft)
04.10.2017 22:00 9,1 C 92 % 1022,0 hPa 0,0 l/m N 0,00 h 0 W/m 0,0 km/h (0 Bft)
04.10.2017 23:00 9,6 C 92 % 1021,5 hPa 0,0 l/m SW 0,00 h 0 W/m 5,2 km/h (1 Bft)
05.10.2017 00:00 9,8 C 93 % 1021,3 hPa 0,0 l/m SW 0,00 h 0 W/m 8,1 km/h (2 Bft)
05.10.2017 01:00 10,6 C 92 % 1020,8 hPa 0,0 l/m SW 0,00 h 0 W/m 9,4 km/h (2 Bft)
05.10.2017 02:00 11,3 C 91 % 1020,6 hPa 0,0 l/m W-SW 0,00 h 0 W/m 18,1 km/h (3 Bft)
05.10.2017 03:00 11,7 C 86 % 1019,7 hPa 0,0 l/m W-SW 0,00 h 0 W/m 21,6 km/h (4 Bft)
05.10.2017 04:00 11,2 C 88 % 1018,5 hPa 0,0 l/m SW 0,00 h 0 W/m 15,2 km/h (3 Bft)
05.10.2017 05:00 10,8 C 90 % 1018,0 hPa 0,0 l/m W-SW 0,00 h 0 W/m 20,4 km/h (4 Bft)
05.10.2017 06:00 10,3 C 90 % 1017,0 hPa 0,0 l/m SW 0,00 h 0 W/m 20,8 km/h (4 Bft)
05.10.2017 07:00 10,7 C 86 % 1016,5 hPa 0,0 l/m SW 0,08 h 15 W/m 27,6 km/h (4 Bft)
05.10.2017 08:00 11,1 C 81 % 1016,2 hPa 0,0 l/m W-SW 0,17 h 67 W/m 30,6 km/h (5 Bft)
05.10.2017 09:00 11,9 C 79 % 1016,1 hPa 0,0 l/m W-SW 0,83 h 269 W/m 29,0 km/h (5 Bft)
05.10.2017 10:00 14,0 C 68 % 1015,5 hPa 0,0 l/m W 1,00 h 432 W/m 31,8 km/h (5 Bft)
05.10.2017 11:00 15,7 C 61 % 1014,8 hPa 0,0 l/m W-SW 1,00 h 528 W/m 36,2 km/h (5 Bft)
05.10.2017 12:00 16,7 C 55 % 1014,3 hPa 0,0 l/m W-SW 1,00 h 584 W/m 35,0 km/h (5 Bft)
05.10.2017 13:00 17,6 C 51 % 1013,4 hPa 0,0 l/m W-SW 1,00 h 592 W/m 37,4 km/h (5 Bft)
05.10.2017 14:00 18,5 C 46 % 1012,3 hPa 0,0 l/m SW 1,00 h 529 W/m 36,3 km/h (5 Bft)
05.10.2017 15:00 19,1 C 43 % 1011,3 hPa 0,0 l/m W-SW 1,00 h 448 W/m 38,2 km/h (5 Bft)
05.10.2017 16:00 19,0 C 43 % 1010,9 hPa 0,0 l/m W-SW 1,00 h 328 W/m 30,5 km/h (5 Bft)
05.10.2017 17:00 17,7 C 48 % 1010,9 hPa 0,2 l/m W-SW 0,25 h 84 W/m 28,7 km/h (4 Bft)
05.10.2017 18:00 15,0 C 56 % 1011,3 hPa 0,0 l/m W 0,33 h 31 W/m 20,4 km/h (4 Bft)
05.10.2017 19:00 14,8 C 62 % 1012,0 hPa 0,0 l/m W-NW 0,00 h 0 W/m 7,8 km/h (2 Bft)
05.10.2017 20:00 13,2 C 79 % 1012,5 hPa 0,6 l/m W-NW 0,00 h 0 W/m 19,3 km/h (3 Bft)
05.10.2017 21:00 12,0 C 91 % 1012,9 hPa 0,2 l/m W 0,00 h 0 W/m 15,4 km/h (3 Bft)
05.10.2017 22:00 10,3 C 92 % 1014,0 hPa 1,0 l/m N-NO 0,00 h 0 W/m 21,2 km/h (4 Bft)
05.10.2017 23:00 8,7 C 94 % 1014,6 hPa 0,2 l/m N 0,00 h 0 W/m 8,6 km/h (2 Bft)
06.10.2017 00:00 8,6 C 94 % 1014,7 hPa 0,0 l/m N 0,00 h 0 W/m 5,2 km/h (1 Bft)
06.10.2017 01:00 8,4 C 94 % 1015,0 hPa 0,0 l/m N-NO 0,00 h 0 W/m 5,4 km/h (1 Bft)
06.10.2017 02:00 8,2 C 95 % 1015,5 hPa 0,0 l/m N-NW 0,00 h 0 W/m 0,9 km/h (0 Bft)
06.10.2017 03:00 7,4 C 96 % 1015,7 hPa 0,0 l/m N 0,00 h 0 W/m 0,0 km/h (0 Bft)
06.10.2017 04:00 7,2 C 97 % 1015,6 hPa 0,0 l/m N-NW 0,00 h 0 W/m 2,7 km/h (1 Bft)
06.10.2017 05:00 7,3 C 96 % 1015,5 hPa 0,0 l/m NW 0,00 h 0 W/m 5,9 km/h (2 Bft)
06.10.2017 06:00 7,1 C 95 % 1016,1 hPa 0,0 l/m W-NW 0,00 h 0 W/m 12,1 km/h (2 Bft)
06.10.2017 07:00 6,7 C 94 % 1016,7 hPa 0,0 l/m W-NW 0,00 h 10 W/m 9,3 km/h (2 Bft)
06.10.2017 08:00 6,7 C 93 % 1017,0 hPa 0,0 l/m W 0,50 h 107 W/m 10,6 km/h (2 Bft)
06.10.2017 09:00 7,7 C 89 % 1017,3 hPa 0,0 l/m W 0,00 h 108 W/m 13,2 km/h (3 Bft)
06.10.2017 10:00 8,2 C 86 % 1017,6 hPa 0,0 l/m W 0,00 h 132 W/m 12,2 km/h (2 Bft)
06.10.2017 11:00 8,4 C 86 % 1018,0 hPa 0,2 l/m W 0,00 h 145 W/m 17,7 km/h (3 Bft)
06.10.2017 12:00 7,8 C 90 % 1018,4 hPa 0,2 l/m W 0,00 h 197 W/m 16,2 km/h (3 Bft)
06.10.2017 13:00 8,8 C 87 % 1018,2 hPa 0,0 l/m W 0,33 h 333 W/m 18,4 km/h (3 Bft)
06.10.2017 14:00 9,8 C 82 % 1017,7 hPa 0,0 l/m W-SW 0,42 h 257 W/m 16,2 km/h (3 Bft)
06.10.2017 15:00 9,7 C 79 % 1017,9 hPa 0,8 l/m W-NW 0,08 h 178 W/m 17,8 km/h (3 Bft)
06.10.2017 16:00 7,6 C 91 % 1018,8 hPa 0,4 l/m W-NW 0,00 h 109 W/m 15,6 km/h (3 Bft)
06.10.2017 17:00 8,2 C 89 % 1019,0 hPa 0,0 l/m W-NW 0,58 h 125 W/m 15,7 km/h (3 Bft)
06.10.2017 18:00 7,9 C 89 % 1019,6 hPa 0,0 l/m W-NW 0,25 h 29 W/m 3,5 km/h (1 Bft)
06.10.2017 19:00 7,5 C 93 % 1020,7 hPa 0,0 l/m W 0,00 h 0 W/m 5,1 km/h (1 Bft)
06.10.2017 20:00 7,4 C 92 % 1021,6 hPa 0,0 l/m W-NW 0,00 h 0 W/m 3,5 km/h (1 Bft)
06.10.2017 21:00 7,2 C 94 % 1022,2 hPa 0,0 l/m W-NW 0,00 h 0 W/m 3,2 km/h (1 Bft)
06.10.2017 22:00 7,2 C 94 % 1022,9 hPa 0,0 l/m W-NW 0,00 h 0 W/m 9,3 km/h (2 Bft)
06.10.2017 23:00 7,2 C 94 % 1023,3 hPa 0,2 l/m W 0,00 h 0 W/m 14,6 km/h (3 Bft)
07.10.2017 00:00 7,1 C 95 % 1023,6 hPa 0,0 l/m W 0,00 h 0 W/m 13,3 km/h (3 Bft)
07.10.2017 01:00 6,8 C 95 % 1023,8 hPa 0,0 l/m W-NW 0,00 h 0 W/m 11,3 km/h (2 Bft)
07.10.2017 02:00 6,6 C 95 % 1024,1 hPa 0,0 l/m W-NW 0,00 h 0 W/m 4,3 km/h (1 Bft)
07.10.2017 03:00 6,2 C 95 % 1023,9 hPa 0,2 l/m W 0,00 h 0 W/m 6,4 km/h (2 Bft)
07.10.2017 04:00 5,7 C 96 % 1024,0 hPa 0,0 l/m W-SW 0,00 h 0 W/m 4,8 km/h (1 Bft)
07.10.2017 05:00 5,7 C 97 % 1024,0 hPa 0,0 l/m N 0,00 h 0 W/m 1,9 km/h (1 Bft)
07.10.2017 06:00 5,6 C 97 % 1024,0 hPa 0,0 l/m W-SW 0,00 h 0 W/m 2,4 km/h (1 Bft)
07.10.2017 07:00 5,1 C 98 % 1024,1 hPa 0,0 l/m N 0,25 h 16 W/m 0,0 km/h (0 Bft)
07.10.2017 08:00 5,4 C 98 % 1024,3 hPa 0,0 l/m N 0,17 h 89 W/m 0,4 km/h (0 Bft)
07.10.2017 09:00 7,1 C 97 % 1024,4 hPa 0,0 l/m W-SW 0,17 h 113 W/m 6,5 km/h (2 Bft)
07.10.2017 10:00 8,2 C 94 % 1024,3 hPa 0,0 l/m SW 0,75 h 367 W/m 13,3 km/h (3 Bft)
07.10.2017 11:00 10,3 C 85 % 1023,8 hPa 0,0 l/m SW 0,75 h 451 W/m 18,4 km/h (3 Bft)
07.10.2017 12:00 11,4 C 75 % 1023,3 hPa 0,0 l/m W 0,92 h 612 W/m 21,2 km/h (4 Bft)
07.10.2017 13:00 12,1 C 69 % 1022,4 hPa 0,0 l/m SW 1,00 h 610 W/m 25,3 km/h (4 Bft)
07.10.2017 14:00 12,3 C 66 % 1021,4 hPa 0,0 l/m W-SW 0,83 h 374 W/m 25,5 km/h (4 Bft)
07.10.2017 15:00 12,0 C 68 % 1020,7 hPa 0,0 l/m W-SW 0,42 h 273 W/m 18,9 km/h (3 Bft)
07.10.2017 16:00 11,6 C 71 % 1019,8 hPa 0,0 l/m W-SW 0,25 h 178 W/m 16,8 km/h (3 Bft)
07.10.2017 17:00 11,3 C 72 % 1018,9 hPa 0,0 l/m W-SW 0,00 h 74 W/m 13,0 km/h (3 Bft)
07.10.2017 18:00 10,7 C 74 % 1018,5 hPa 0,0 l/m W-SW 0,00 h 26 W/m 13,7 km/h (3 Bft)
07.10.2017 19:00 10,0 C 75 % 1018,0 hPa 0,0 l/m SW 0,00 h 0 W/m 12,9 km/h (3 Bft)
07.10.2017 20:00 9,7 C 77 % 1017,5 hPa 0,0 l/m SW 0,00 h 0 W/m 12,4 km/h (3 Bft)
07.10.2017 21:00 9,6 C 81 % 1017,2 hPa 0,0 l/m SW 0,00 h 0 W/m 14,1 km/h (3 Bft)
07.10.2017 22:00 9,8 C 82 % 1016,9 hPa 0,0 l/m W-SW 0,00 h 0 W/m 13,4 km/h (3 Bft)
07.10.2017 23:00 9,8 C 82 % 1016,5 hPa 0,0 l/m W-SW 0,00 h 0 W/m 17,0 km/h (3 Bft)
08.10.2017 00:00 9,8 C 82 % 1015,7 hPa 0,0 l/m W-SW 0,00 h 0 W/m 18,5 km/h (3 Bft)
08.10.2017 01:00 9,6 C 79 % 1015,9 hPa 1,2 l/m W-SW 0,00 h 0 W/m 23,8 km/h (4 Bft)
08.10.2017 02:00 7,7 C 88 % 1016,7 hPa 2,6 l/m W-SW 0,00 h 0 W/m 23,3 km/h (4 Bft)
08.10.2017 03:00 6,7 C 92 % 1016,5 hPa 2,8 l/m W-SW 0,00 h 0 W/m 22,0 km/h (4 Bft)
08.10.2017 04:00 6,9 C 94 % 1016,4 hPa 2,0 l/m SW 0,00 h 0 W/m 20,3 km/h (4 Bft)
08.10.2017 05:00 7,0 C 95 % 1016,2 hPa 0,2 l/m W-SW 0,00 h 0 W/m 23,1 km/h (4 Bft)
08.10.2017 06:00 7,1 C 95 % 1016,1 hPa 0,2 l/m W 0,00 h 0 W/m 26,0 km/h (4 Bft)
08.10.2017 07:00 6,9 C 93 % 1016,2 hPa 0,4 l/m W-SW 0,00 h 6 W/m 26,0 km/h (4 Bft)
08.10.2017 08:00 6,9 C 93 % 1016,5 hPa 0,2 l/m W-SW 0,00 h 35 W/m 24,3 km/h (4 Bft)
08.10.2017 09:00 7,4 C 93 % 1016,9 hPa 0,2 l/m W-SW 0,00 h 72 W/m 21,4 km/h (4 Bft)
08.10.2017 10:00 8,1 C 93 % 1017,4 hPa 0,0 l/m W-SW 0,00 h 126 W/m 17,8 km/h (3 Bft)
08.10.2017 11:00 9,4 C 91 % 1017,7 hPa 0,0 l/m W-SW 0,17 h 216 W/m 17,6 km/h (3 Bft)
08.10.2017 12:00 10,1 C 90 % 1017,7 hPa 0,0 l/m W-SW 0,08 h 249 W/m 21,8 km/h (4 Bft)
08.10.2017 13:00 10,6 C 89 % 1017,7 hPa 0,0 l/m W-SW 0,00 h 234 W/m 19,7 km/h (3 Bft)
08.10.2017 14:00 10,5 C 89 % 1017,6 hPa 0,0 l/m SW 0,00 h 118 W/m 14,5 km/h (3 Bft)
08.10.2017 15:00 10,6 C 92 % 1017,5 hPa 0,0 l/m SW 0,00 h 128 W/m 14,0 km/h (3 Bft)
08.10.2017 16:00 11,0 C 91 % 1017,5 hPa 0,0 l/m W-SW 0,00 h 133 W/m 14,8 km/h (3 Bft)
08.10.2017 17:00 10,8 C 92 % 1017,5 hPa 0,0 l/m W-SW 0,00 h 39 W/m 11,4 km/h (2 Bft)
08.10.2017 18:00 10,6 C 92 % 1017,9 hPa 0,0 l/m W-SW 0,00 h 13 W/m 13,2 km/h (3 Bft)
08.10.2017 19:00 10,3 C 93 % 1018,5 hPa 0,0 l/m SW 0,00 h 0 W/m 11,3 km/h (2 Bft)
08.10.2017 20:00 10,0 C 94 % 1018,9 hPa 0,0 l/m SW 0,00 h 0 W/m 3,2 km/h (1 Bft)
08.10.2017 21:00 9,5 C 96 % 1019,1 hPa 0,0 l/m N 0,00 h 0 W/m 0,0 km/h (0 Bft)
08.10.2017 22:00 9,2 C 97 % 1019,1 hPa 0,0 l/m N 0,00 h 0 W/m 0,0 km/h (0 Bft)
08.10.2017 23:00 9,1 C 97 % 1019,3 hPa 0,0 l/m N 0,00 h 0 W/m 0,0 km/h (0 Bft)
Min-Datum _ 04.10.17 05.10.17 03.10.17 - - - - 02.10.17
_ Min-Zeit 07:40 15:00 07:15 - - - - 00:00
Minimum _ 4,9 C 42 % 1010,1 hPa - - - - 0,0 km/h (0 Bft)
Max-Datum _ 05.10.17 02.10.17 04.10.17 03.10.17 - 02.10.17 03.10.17 05.10.17
_ Max-Zeit 15:10 08:15 10:35 09:00 - 07:35 13:25 15:30
Maximum _ 19,2 C 100 % 1025,0 hPa 5,2 l/m - 0,08 h 814 W/m 48,3 km/h
W (6 Bft)
Durchschnitt _ 10,4 C 88 % 1018,7 hPa #26,8 l/m W-SW #27:35 h 206 W/m 12,7 km/h (3 Bft)